Time,TemperatureF,DewpointF,PressureIn,WindDirection,WindDirectionDegrees,WindSpeedMPH,WindSpeedGustMPH,Humidity,HourlyPrecipIn,Conditions,Clouds,dailyrainin,SoftwareType,DateUTC
2015-05-06 00:03:00,53.3,49.2,30.22,SE,140,0.0,0.0,86,0.00,,OVC190,0.00,VWS V15.00,2015-05-06 04:03:00,
2015-05-06 00:08:00,53.2,49.1,30.22,SE,140,0.0,0.0,86,0.00,,OVC190,0.00,VWS V15.00,2015-05-06 04:08:00,
2015-05-06 00:13:00,53.1,49.0,30.22,SE,140,0.0,0.0,86,0.00,,OVC190,0.00,VWS V15.00,2015-05-06 04:13:00,
2015-05-06 00:18:00,52.9,48.8,30.22,SE,140,0.0,0.0,86,0.00,,OVC190,0.00,VWS V15.00,2015-05-06 04:18:00,
2015-05-06 00:23:00,52.8,49.0,30.22,SE,140,0.0,0.0,87,0.00,,OVC190,0.00,VWS V15.00,2015-05-06 04:23:00,
2015-05-06 00:28:00,52.6,48.8,30.21,SE,140,0.0,0.0,87,0.00,,OVC190,0.00,VWS V15.00,2015-05-06 04:28:00,
2015-05-06 00:33:00,52.5,48.8,30.21,SE,140,0.0,0.0,87,0.00,,OVC190,0.00,VWS V15.00,2015-05-06 04:33:00,
2015-05-06 00:38:00,52.4,48.7,30.21,SE,140,0.0,0.0,87,0.00,,OVC190,0.00,VWS V15.00,2015-05-06 04:38:00,
2015-05-06 00:43:00,52.2,48.5,30.21,SE,140,0.0,0.0,87,0.00,,OVC200,0.00,VWS V15.00,2015-05-06 04:43:00,
2015-05-06 00:48:00,52.0,48.3,30.21,SE,140,0.0,0.0,87,0.00,,OVC200,0.00,VWS V15.00,2015-05-06 04:48:00,
2015-05-06 00:53:00,51.9,48.2,30.21,SE,140,0.0,0.0,87,0.00,,OVC200,0.00,VWS V15.00,2015-05-06 04:53:00,
2015-05-06 00:58:00,51.8,48.1,30.21,SE,140,0.0,0.0,87,0.00,,OVC200,0.00,VWS V15.00,2015-05-06 04:58:00,
2015-05-06 01:03:00,51.6,48.2,30.21,SE,140,0.0,0.0,88,0.00,,OVC200,0.00,VWS V15.00,2015-05-06 05:03:00,
2015-05-06 01:08:00,51.4,48.0,30.21,SE,140,0.0,0.0,88,0.00,,OVC200,0.00,VWS V15.00,2015-05-06 05:08:00,
2015-05-06 01:13:00,51.3,47.9,30.21,SE,140,0.0,0.0,88,0.00,,OVC200,0.00,VWS V15.00,2015-05-06 05:13:00,
2015-05-06 01:18:00,51.1,48.0,30.21,SE,140,0.0,0.0,89,0.00,,OVC200,0.00,VWS V15.00,2015-05-06 05:18:00,
2015-05-06 01:23:00,51.0,47.9,30.20,SE,140,0.0,0.0,89,0.00,,OVC200,0.00,VWS V15.00,2015-05-06 05:23:00,
2015-05-06 01:28:00,50.9,47.8,30.20,SE,140,0.0,0.0,89,0.00,,OVC200,0.00,VWS V15.00,2015-05-06 05:28:00,
2015-05-06 01:33:00,50.7,47.6,30.20,SE,140,0.0,0.0,89,0.00,,OVC200,0.00,VWS V15.00,2015-05-06 05:33:00,
2015-05-06 01:38:00,50.6,47.5,30.20,SE,140,0.0,0.0,89,0.00,,OVC200,0.00,VWS V15.00,2015-05-06 05:38:00,
2015-05-06 01:43:00,50.4,47.3,30.20,SE,140,0.0,0.0,89,0.00,,OVC200,0.00,VWS V15.00,2015-05-06 05:43:00,
2015-05-06 01:48:00,50.3,47.5,30.20,SE,140,0.0,0.0,90,0.00,,OVC200,0.00,VWS V15.00,2015-05-06 05:48:00,
2015-05-06 01:53:00,50.2,47.4,30.20,SE,140,0.0,0.0,90,0.00,,OVC200,0.00,VWS V15.00,2015-05-06 05:53:00,
2015-05-06 01:58:00,50.1,47.3,30.20,SE,140,0.0,0.0,90,0.00,,OVC200,0.00,VWS V15.00,2015-05-06 05:58:00,
2015-05-06 02:03:00,50.0,47.2,30.20,SE,140,0.0,0.0,90,0.00,,OVC200,0.00,VWS V15.00,2015-05-06 06:03:00,
2015-05-06 02:08:00,49.9,47.1,30.20,SE,140,0.0,0.0,90,0.00,,OVC200,0.00,VWS V15.00,2015-05-06 06:08:00,
2015-05-06 02:13:00,49.8,47.0,30.20,SE,140,0.0,0.0,90,0.00,,OVC200,0.00,VWS V15.00,2015-05-06 06:13:00,
2015-05-06 02:18:00,49.7,46.9,30.19,SE,140,0.0,0.0,90,0.00,,OVC200,0.00,VWS V15.00,2015-05-06 06:18:00,
2015-05-06 02:23:00,49.6,46.8,30.19,SE,140,0.0,0.0,90,0.00,,OVC200,0.00,VWS V15.00,2015-05-06 06:23:00,
2015-05-06 02:28:00,49.5,46.7,30.19,SE,140,0.0,0.0,90,0.00,,OVC200,0.00,VWS V15.00,2015-05-06 06:28:00,
2015-05-06 02:33:00,49.4,46.9,30.19,SE,140,0.0,0.0,91,0.00,,OVC200,0.00,VWS V15.00,2015-05-06 06:33:00,
2015-05-06 02:38:00,49.4,46.9,30.19,SE,140,0.0,0.0,91,0.00,,OVC200,0.00,VWS V15.00,2015-05-06 06:38:00,
2015-05-06 02:43:00,49.3,46.8,30.19,SE,140,0.0,0.0,91,0.00,,OVC190,0.00,VWS V15.00,2015-05-06 06:43:00,
2015-05-06 02:48:00,49.2,46.7,30.19,SE,140,0.0,0.0,91,0.00,,OVC190,0.00,VWS V15.00,2015-05-06 06:48:00,
2015-05-06 02:53:00,49.2,46.7,30.19,SE,140,0.0,0.0,91,0.00,,OVC190,0.00,VWS V15.00,2015-05-06 06:53:00,
2015-05-06 02:58:00,49.2,46.7,30.19,SE,140,0.0,0.0,91,0.00,,OVC190,0.00,VWS V15.00,2015-05-06 06:58:00,
2015-05-06 03:03:00,49.1,46.6,30.19,SE,140,0.0,0.0,91,0.00,,BKN160,0.00,VWS V15.00,2015-05-06 07:03:00,
2015-05-06 03:08:00,49.0,46.5,30.19,SE,140,0.0,0.0,91,0.00,,BKN160,0.00,VWS V15.00,2015-05-06 07:08:00,
2015-05-06 03:13:00,49.0,46.5,30.19,SE,140,0.0,0.0,91,0.00,,BKN160,0.00,VWS V15.00,2015-05-06 07:13:00,
2015-05-06 03:18:00,49.0,46.5,30.19,SE,140,0.0,0.0,91,0.00,,BKN160,0.00,VWS V15.00,2015-05-06 07:18:00,
2015-05-06 03:23:00,48.9,46.4,30.19,SE,140,0.0,0.0,91,0.00,,BKN160,0.00,VWS V15.00,2015-05-06 07:23:00,
2015-05-06 03:28:00,48.9,46.4,30.19,SE,140,0.0,0.0,91,0.00,,BKN160,0.00,VWS V15.00,2015-05-06 07:28:00,
2015-05-06 03:33:00,48.9,46.4,30.19,SE,140,0.0,0.0,91,0.00,,BKN160,0.00,VWS V15.00,2015-05-06 07:33:00,
2015-05-06 03:38:00,48.9,46.4,30.20,SE,140,0.0,0.0,91,0.00,,BKN160,0.00,VWS V15.00,2015-05-06 07:38:00,
2015-05-06 03:43:00,48.8,46.3,30.20,SE,140,0.0,0.0,91,0.00,,OVC070,0.00,VWS V15.00,2015-05-06 07:43:00,
2015-05-06 03:48:00,48.9,46.7,30.20,SE,140,0.0,0.0,92,0.00,,OVC070,0.00,VWS V15.00,2015-05-06 07:48:00,
2015-05-06 03:53:00,49.0,46.8,30.20,SE,140,0.0,0.0,92,0.00,,OVC070,0.00,VWS V15.00,2015-05-06 07:53:00,
2015-05-06 03:58:00,49.0,46.8,30.20,SE,140,0.0,0.0,92,0.00,,OVC070,0.00,VWS V15.00,2015-05-06 07:58:00,
2015-05-06 04:03:00,49.0,46.8,30.20,SE,140,0.0,0.0,92,0.00,,OVC070,0.00,VWS V15.00,2015-05-06 08:03:00,
2015-05-06 04:08:00,49.0,46.8,30.20,SE,140,0.0,0.0,92,0.00,,OVC070,0.00,VWS V15.00,2015-05-06 08:08:00,
2015-05-06 04:13:00,49.1,46.9,30.20,SE,140,0.0,0.0,92,0.00,,OVC070,0.00,VWS V15.00,2015-05-06 08:13:00,
2015-05-06 04:18:00,49.2,47.0,30.20,SE,140,0.0,0.0,92,0.00,,OVC070,0.00,VWS V15.00,2015-05-06 08:18:00,
2015-05-06 04:23:00,49.2,47.0,30.20,SE,140,0.0,0.0,92,0.00,,OVC070,0.00,VWS V15.00,2015-05-06 08:23:00,
2015-05-06 04:28:00,49.2,47.0,30.20,SE,140,0.0,0.0,92,0.00,,OVC070,0.00,VWS V15.00,2015-05-06 08:28:00,
2015-05-06 04:33:00,49.1,46.9,30.20,SE,140,0.0,0.0,92,0.00,,OVC070,0.00,VWS V15.00,2015-05-06 08:33:00,
2015-05-06 04:38:00,49.0,46.8,30.20,SE,140,0.0,0.0,92,0.00,,OVC070,0.00,VWS V15.00,2015-05-06 08:38:00,
2015-05-06 04:43:00,49.0,46.8,30.20,SE,140,0.0,0.0,92,0.00,,OVC070,0.00,VWS V15.00,2015-05-06 08:43:00,
2015-05-06 04:48:00,49.0,46.8,30.20,SE,140,0.0,0.0,92,0.00,,OVC070,0.00,VWS V15.00,2015-05-06 08:48:00,
2015-05-06 04:53:00,49.0,46.8,30.20,SE,140,0.0,0.0,92,0.00,,OVC070,0.00,VWS V15.00,2015-05-06 08:53:00,
2015-05-06 04:58:00,49.1,47.2,30.21,SE,140,0.0,0.0,93,0.00,,OVC070,0.00,VWS V15.00,2015-05-06 08:58:00,
2015-05-06 05:03:00,49.3,47.4,30.20,SE,140,0.0,0.0,93,0.00,,OVC065,0.00,VWS V15.00,2015-05-06 09:03:00,
2015-05-06 05:08:00,49.6,47.7,30.21,SE,140,0.0,0.0,93,0.00,,OVC065,0.00,VWS V15.00,2015-05-06 09:08:00,
2015-05-06 05:13:00,49.9,48.2,30.21,SE,140,0.0,0.0,94,0.00,,OVC065,0.00,VWS V15.00,2015-05-06 09:13:00,
2015-05-06 05:18:00,50.2,48.5,30.21,SE,140,0.0,0.0,94,0.00,,OVC065,0.00,VWS V15.00,2015-05-06 09:18:00,
2015-05-06 05:23:00,50.7,49.0,30.21,NE,52,2.0,3.0,94,0.00,,OVC065,0.00,VWS V15.00,2015-05-06 09:23:00,
2015-05-06 05:28:00,52.4,51.0,30.21,NNE,31,1.0,3.0,95,0.00,,OVC065,0.00,VWS V15.00,2015-05-06 09:28:00,
2015-05-06 05:33:00,53.5,51.5,30.21,NE,38,0.0,4.0,93,0.00,,OVC065,0.00,VWS V15.00,2015-05-06 09:33:00,
2015-05-06 05:38:00,54.2,51.9,30.22,NE,38,0.0,4.0,92,0.00,,OVC065,0.00,VWS V15.00,2015-05-06 09:38:00,
2015-05-06 05:43:00,54.8,51.9,30.22,NE,34,2.0,4.0,90,0.00,,OVC070,0.00,VWS V15.00,2015-05-06 09:43:00,
2015-05-06 05:48:00,55.3,52.1,30.22,NE,34,1.0,4.0,89,0.00,,OVC070,0.00,VWS V15.00,2015-05-06 09:48:00,
2015-05-06 05:53:00,55.7,52.2,30.23,NE,34,0.0,4.0,88,0.00,,OVC070,0.00,VWS V15.00,2015-05-06 09:53:00,
2015-05-06 05:58:00,55.9,52.4,30.23,NE,34,3.0,4.0,88,0.00,,OVC070,0.00,VWS V15.00,2015-05-06 09:58:00,
2015-05-06 06:03:00,56.0,52.2,30.23,NE,34,0.0,3.0,87,0.00,,OVC070,0.00,VWS V15.00,2015-05-06 10:03:00,
2015-05-06 06:08:00,56.2,52.4,30.23,NE,34,0.0,3.0,87,0.00,,OVC070,0.00,VWS V15.00,2015-05-06 10:08:00,
2015-05-06 06:13:00,56.3,52.5,30.23,ENE,63,2.0,3.0,87,0.00,,OVC070,0.00,VWS V15.00,2015-05-06 10:13:00,
2015-05-06 06:18:00,56.5,52.4,30.24,NNE,28,3.0,4.0,86,0.00,,OVC070,0.00,VWS V15.00,2015-05-06 10:18:00,
2015-05-06 06:23:00,56.7,52.6,30.24,NNE,22,0.0,4.0,86,0.00,,OVC070,0.00,VWS V15.00,2015-05-06 10:23:00,
2015-05-06 06:28:00,56.8,52.7,30.24,NNE,22,3.0,4.0,86,0.00,,OVC070,0.00,VWS V15.00,2015-05-06 10:28:00,
2015-05-06 06:33:00,56.8,52.7,30.24,NNE,22,1.0,2.0,86,0.00,,OVC070,0.00,VWS V15.00,2015-05-06 10:33:00,
2015-05-06 06:38:00,56.9,52.4,30.24,NNE,22,1.0,3.0,85,0.00,,OVC070,0.00,VWS V15.00,2015-05-06 10:38:00,
2015-05-06 06:43:00,57.0,52.5,30.25,NNE,22,0.0,3.0,85,0.00,,BKN180,0.00,VWS V15.00,2015-05-06 10:43:00,
2015-05-06 06:48:00,57.1,52.6,30.25,NNE,23,0.0,3.0,85,0.00,,BKN180,0.00,VWS V15.00,2015-05-06 10:48:00,
2015-05-06 06:53:00,57.3,52.8,30.25,NNE,24,1.0,3.0,85,0.00,,BKN180,0.00,VWS V15.00,2015-05-06 10:53:00,
2015-05-06 06:58:00,57.5,53.0,30.25,NE,34,2.0,3.0,85,0.00,,BKN180,0.00,VWS V15.00,2015-05-06 10:58:00,
2015-05-06 07:03:00,57.9,53.4,30.25,NE,56,3.0,4.0,85,0.00,,SCT170,0.00,VWS V15.00,2015-05-06 11:03:00,
2015-05-06 07:08:00,58.2,53.4,30.25,NNE,27,3.0,5.0,84,0.00,,SCT170,0.00,VWS V15.00,2015-05-06 11:08:00,
2015-05-06 07:13:00,58.5,53.4,30.25,NE,51,3.0,6.0,83,0.00,,SCT170,0.00,VWS V15.00,2015-05-06 11:13:00,
2015-05-06 07:18:00,58.7,53.6,30.25,ENE,62,4.0,6.0,83,0.00,,SCT170,0.00,VWS V15.00,2015-05-06 11:18:00,
2015-05-06 07:23:00,58.8,53.3,30.26,NE,38,3.0,6.0,82,0.00,,SCT170,0.00,VWS V15.00,2015-05-06 11:23:00,
2015-05-06 07:33:00,59.0,53.2,30.25,NNE,24,1.0,3.0,81,0.00,,SCT170,0.00,VWS V15.00,2015-05-06 11:33:00,
2015-05-06 07:38:00,59.0,53.2,30.26,NE,49,4.0,5.0,81,0.00,,SCT170,0.00,VWS V15.00,2015-05-06 11:38:00,
2015-05-06 07:43:00,59.2,53.4,30.26,ENE,58,3.0,5.0,81,0.00,,BKN180,0.00,VWS V15.00,2015-05-06 11:43:00,
2015-05-06 07:48:00,59.2,53.4,30.26,NE,46,1.0,5.0,81,0.00,,BKN180,0.00,VWS V15.00,2015-05-06 11:48:00,
2015-05-06 07:53:00,59.3,53.1,30.25,NNE,32,4.0,5.0,80,0.00,,BKN180,0.00,VWS V15.00,2015-05-06 11:53:00,
2015-05-06 07:58:00,59.5,53.3,30.26,ENE,61,2.0,5.0,80,0.00,,BKN180,0.00,VWS V15.00,2015-05-06 11:58:00,
2015-05-06 08:03:00,59.6,53.4,30.26,NE,43,2.0,4.0,80,0.00,,FEW160,0.00,VWS V15.00,2015-05-06 12:03:00,
2015-05-06 08:08:00,59.8,53.3,30.26,ENE,76,3.0,6.0,79,0.00,,FEW160,0.00,VWS V15.00,2015-05-06 12:08:00,
2015-05-06 08:13:00,60.0,53.1,30.26,ENE,61,2.0,6.0,78,0.00,,FEW160,0.00,VWS V15.00,2015-05-06 12:13:00,
2015-05-06 08:18:00,60.2,53.3,30.27,NE,41,4.0,6.0,78,0.00,,FEW160,0.00,VWS V15.00,2015-05-06 12:18:00,
2015-05-06 08:28:00,60.6,53.4,30.27,NE,34,3.0,7.0,77,0.00,,FEW160,0.00,VWS V15.00,2015-05-06 12:28:00,
2015-05-06 08:33:00,60.8,53.5,30.28,NE,41,2.0,3.0,77,0.00,,FEW160,0.00,VWS V15.00,2015-05-06 12:33:00,
2015-05-06 08:38:00,60.8,53.2,30.27,NE,42,1.0,5.0,76,0.00,,FEW160,0.00,VWS V15.00,2015-05-06 12:38:00,
2015-05-06 08:43:00,60.8,53.5,30.27,NNE,30,3.0,5.0,77,0.00,,FEW160,0.00,VWS V15.00,2015-05-06 12:43:00,
2015-05-06 08:48:00,60.8,53.5,30.27,ENE,58,2.0,5.0,77,0.00,,FEW160,0.00,VWS V15.00,2015-05-06 12:48:00,
2015-05-06 08:53:00,60.9,53.3,30.27,ENE,57,3.0,5.0,76,0.00,,FEW160,0.00,VWS V15.00,2015-05-06 12:53:00,
2015-05-06 08:58:00,60.9,52.9,30.27,NE,45,1.0,5.0,75,0.00,,FEW160,0.00,VWS V15.00,2015-05-06 12:58:00,
2015-05-06 09:03:00,61.0,52.7,30.27,NE,50,3.0,6.0,74,0.00,,FEW160,0.00,VWS V15.00,2015-05-06 13:03:00,
2015-05-06 09:08:00,61.2,52.5,30.27,NE,53,4.0,6.0,73,0.00,,FEW160,0.00,VWS V15.00,2015-05-06 13:08:00,
2015-05-06 09:13:00,61.3,51.5,30.28,NE,46,3.0,6.0,70,0.00,,FEW160,0.00,VWS V15.00,2015-05-06 13:13:00,
2015-05-06 09:18:00,61.4,50.8,30.28,ENE,57,0.0,6.0,68,0.00,,FEW160,0.00,VWS V15.00,2015-05-06 13:18:00,
2015-05-06 09:23:00,61.5,50.5,30.28,ENE,58,3.0,6.0,67,0.00,,CLR,0.00,VWS V15.00,2015-05-06 13:23:00,
2015-05-06 09:28:00,61.7,49.4,30.28,ENE,64,2.0,6.0,64,0.00,,CLR,0.00,VWS V15.00,2015-05-06 13:28:00,
2015-05-06 09:33:00,61.7,49.0,30.28,ENE,65,3.0,5.0,63,0.00,,CLR,0.00,VWS V15.00,2015-05-06 13:33:00,
2015-05-06 09:38:00,61.7,47.7,30.29,ENE,69,2.0,6.0,60,0.00,,CLR,0.00,VWS V15.00,2015-05-06 13:38:00,
2015-05-06 09:43:00,61.8,47.8,30.28,ESE,107,3.0,8.0,60,0.00,,CLR,0.00,VWS V15.00,2015-05-06 13:43:00,
2015-05-06 09:48:00,62.0,48.0,30.28,NE,54,3.0,8.0,60,0.00,,CLR,0.00,VWS V15.00,2015-05-06 13:48:00,
2015-05-06 09:53:00,62.1,47.6,30.28,East,86,6.0,8.0,59,0.00,,CLR,0.00,VWS V15.00,2015-05-06 13:53:00,
2015-05-06 09:58:00,62.3,46.4,30.29,East,83,3.0,8.0,56,0.00,,CLR,0.00,VWS V15.00,2015-05-06 13:58:00,
2015-05-06 10:03:00,62.3,44.5,30.29,ENE,67,1.0,7.0,52,0.00,,CLR,0.00,VWS V15.00,2015-05-06 14:03:00,
2015-05-06 10:08:00,62.4,45.5,30.29,NE,55,3.0,7.0,54,0.00,,CLR,0.00,VWS V15.00,2015-05-06 14:08:00,
2015-05-06 10:13:00,62.5,44.7,30.29,ENE,59,1.0,7.0,52,0.00,,CLR,0.00,VWS V15.00,2015-05-06 14:13:00,
2015-05-06 10:18:00,62.7,45.8,30.29,ENE,65,0.0,7.0,54,0.00,,CLR,0.00,VWS V15.00,2015-05-06 14:18:00,
2015-05-06 10:23:00,62.9,45.5,30.29,NE,49,3.0,7.0,53,0.00,,CLR,0.00,VWS V15.00,2015-05-06 14:23:00,
2015-05-06 10:28:00,62.9,43.5,30.29,ESE,107,3.0,7.0,49,0.00,,CLR,0.00,VWS V15.00,2015-05-06 14:28:00,
2015-05-06 10:33:00,63.0,43.6,30.29,ENE,61,3.0,4.0,49,0.00,,CLR,0.00,VWS V15.00,2015-05-06 14:33:00,
2015-05-06 10:38:00,63.1,42.6,30.29,North,10,1.0,5.0,47,0.00,,CLR,0.00,VWS V15.00,2015-05-06 14:38:00,
2015-05-06 10:43:00,63.2,42.1,30.29,East,86,2.0,7.0,46,0.00,,CLR,0.00,VWS V15.00,2015-05-06 14:43:00,
2015-05-06 10:48:00,63.6,43.6,30.29,SE,140,0.0,7.0,48,0.00,,CLR,0.00,VWS V15.00,2015-05-06 14:48:00,
2015-05-06 10:53:00,64.2,43.6,30.29,NNE,31,0.0,7.0,47,0.00,,CLR,0.00,VWS V15.00,2015-05-06 14:53:00,
2015-05-06 10:58:00,64.7,42.3,30.29,NE,49,5.0,7.0,44,0.00,,CLR,0.00,VWS V15.00,2015-05-06 14:58:00,
2015-05-06 11:03:00,64.8,42.4,30.29,East,88,3.0,6.0,44,0.00,,CLR,0.00,VWS V15.00,2015-05-06 15:03:00,
2015-05-06 11:08:00,65.1,42.7,30.29,NE,54,0.0,7.0,44,0.00,,CLR,0.00,VWS V15.00,2015-05-06 15:08:00,
2015-05-06 11:13:00,65.3,42.8,30.29,NE,38,3.0,7.0,44,0.00,,CLR,0.00,VWS V15.00,2015-05-06 15:13:00,
2015-05-06 11:18:00,65.1,41.5,30.28,NNW,342,1.0,7.0,42,0.00,,CLR,0.00,VWS V15.00,2015-05-06 15:18:00,
2015-05-06 11:23:00,65.0,42.6,30.29,NE,48,0.0,7.0,44,0.00,,CLR,0.00,VWS V15.00,2015-05-06 15:23:00,
2015-05-06 11:28:00,65.0,42.0,30.29,ENE,61,0.0,7.0,43,0.00,,CLR,0.00,VWS V15.00,2015-05-06 15:28:00,
2015-05-06 11:33:00,65.1,41.5,30.29,ESE,118,1.0,3.0,42,0.00,,CLR,0.00,VWS V15.00,2015-05-06 15:33:00,
2015-05-06 11:38:00,65.2,42.2,30.28,East,91,0.0,3.0,43,0.00,,CLR,0.00,VWS V15.00,2015-05-06 15:38:00,
2015-05-06 11:43:00,65.5,41.8,30.28,SE,133,4.0,7.0,42,0.00,,SCT050,0.00,VWS V15.00,2015-05-06 15:43:00,
2015-05-06 11:48:00,65.7,42.6,30.28,East,80,2.0,7.0,43,0.00,,SCT050,0.00,VWS V15.00,2015-05-06 15:48:00,
2015-05-06 11:53:00,65.9,42.8,30.28,NNE,25,5.0,7.0,43,0.00,,SCT050,0.00,VWS V15.00,2015-05-06 15:53:00,
2015-05-06 11:58:00,66.0,41.0,30.27,NE,53,2.0,7.0,40,0.00,,SCT050,0.00,VWS V15.00,2015-05-06 15:58:00,
2015-05-06 12:03:00,65.9,42.2,30.28,NE,55,2.0,3.0,42,0.00,,SCT150,0.00,VWS V15.00,2015-05-06 16:03:00,
2015-05-06 12:08:00,66.0,40.4,30.28,ESE,105,2.0,7.0,39,0.00,,SCT150,0.00,VWS V15.00,2015-05-06 16:08:00,
2015-05-06 12:13:00,66.1,41.7,30.28,ESE,115,0.0,7.0,41,0.00,,SCT150,0.00,VWS V15.00,2015-05-06 16:13:00,
2015-05-06 12:18:00,66.3,42.5,30.27,SE,126,3.0,7.0,42,0.00,,SCT150,0.00,VWS V15.00,2015-05-06 16:18:00,
2015-05-06 12:23:00,66.5,41.5,30.27,ENE,69,0.0,7.0,40,0.00,,SCT150,0.00,VWS V15.00,2015-05-06 16:23:00,
2015-05-06 12:28:00,66.6,41.5,30.27,NE,44,0.0,7.0,40,0.00,,SCT150,0.00,VWS V15.00,2015-05-06 16:28:00,
2015-05-06 12:33:00,66.8,41.7,30.27,NE,42,1.0,4.0,40,0.00,,SCT150,0.00,VWS V15.00,2015-05-06 16:33:00,
2015-05-06 12:38:00,67.0,41.2,30.27,SSE,150,2.0,5.0,39,0.00,,SCT150,0.00,VWS V15.00,2015-05-06 16:38:00,
2015-05-06 12:43:00,67.3,42.8,30.27,NNE,32,1.0,5.0,41,0.00,,FEW150,0.00,VWS V15.00,2015-05-06 16:43:00,
2015-05-06 12:48:00,67.2,41.4,30.26,NE,40,0.0,5.0,39,0.00,,FEW150,0.00,VWS V15.00,2015-05-06 16:48:00,
2015-05-06 12:53:00,67.4,40.9,30.27,NNE,24,2.0,6.0,38,0.00,,FEW150,0.00,VWS V15.00,2015-05-06 16:53:00,
2015-05-06 12:58:00,67.8,41.3,30.26,ESE,115,5.0,7.0,38,0.00,,FEW150,0.00,VWS V15.00,2015-05-06 16:58:00,
2015-05-06 13:03:00,68.2,41.7,30.26,East,88,6.0,6.0,38,0.00,,CLR,0.00,VWS V15.00,2015-05-06 17:03:00,
2015-05-06 13:08:00,68.6,41.3,30.26,East,89,3.0,7.0,37,0.00,,CLR,0.00,VWS V15.00,2015-05-06 17:08:00,
2015-05-06 13:13:00,68.8,40.8,30.26,ESE,114,3.0,7.0,36,0.00,,CLR,0.00,VWS V15.00,2015-05-06 17:13:00,
2015-05-06 13:18:00,69.0,41.7,30.26,ESE,118,3.0,7.0,37,0.00,,CLR,0.00,VWS V15.00,2015-05-06 17:18:00,
2015-05-06 13:23:00,69.5,42.1,30.25,ESE,107,0.0,9.0,37,0.00,,CLR,0.00,VWS V15.00,2015-05-06 17:23:00,
2015-05-06 13:28:00,70.1,41.9,30.25,ENE,67,0.0,9.0,36,0.00,,CLR,0.00,VWS V15.00,2015-05-06 17:28:00,
2015-05-06 13:33:00,70.5,40.8,30.26,East,101,8.0,8.0,34,0.00,,CLR,0.00,VWS V15.00,2015-05-06 17:33:00,
2015-05-06 13:38:00,70.7,39.4,30.25,WNW,289,1.0,8.0,32,0.00,,CLR,0.00,VWS V15.00,2015-05-06 17:38:00,
2015-05-06 13:43:00,71.0,38.9,30.25,ESE,110,1.0,8.0,31,0.00,,,0.00,VWS V15.00,2015-05-06 17:43:00,
2015-05-06 13:48:00,71.6,37.7,30.25,SE,132,3.0,8.0,29,0.00,,,0.00,VWS V15.00,2015-05-06 17:48:00,
2015-05-06 13:53:00,72.0,38.9,30.25,South,182,0.0,8.0,30,0.00,,,0.00,VWS V15.00,2015-05-06 17:53:00,
2015-05-06 13:58:00,72.2,37.3,30.25,East,91,2.0,8.0,28,0.00,,,0.00,VWS V15.00,2015-05-06 17:58:00,
2015-05-06 14:03:00,72.7,39.5,30.24,SE,142,2.0,6.0,30,0.00,,,0.00,VWS V15.00,2015-05-06 18:03:00,
2015-05-06 14:08:00,73.3,39.2,30.24,SE,131,3.0,6.0,29,0.00,,,0.00,VWS V15.00,2015-05-06 18:08:00,
2015-05-06 14:13:00,73.4,38.3,30.24,SW,223,2.0,6.0,28,0.00,,,0.00,VWS V15.00,2015-05-06 18:13:00,
2015-05-06 14:18:00,72.5,40.2,30.24,NNE,31,3.0,7.0,31,0.00,,,0.00,VWS V15.00,2015-05-06 18:18:00,
2015-05-06 14:23:00,71.3,40.0,30.23,NNE,20,1.0,7.0,32,0.00,,,0.00,VWS V15.00,2015-05-06 18:23:00,
2015-05-06 14:28:00,71.4,38.4,30.23,ENE,74,0.0,7.0,30,0.00,,,0.00,VWS V15.00,2015-05-06 18:28:00,
2015-05-06 14:33:00,71.7,37.8,30.23,North,355,3.0,3.0,29,0.00,,,0.00,VWS V15.00,2015-05-06 18:33:00,